sensor_id;sensor_type;location;lat;lon;timestamp;P1;durP1;ratioP1;P2;durP2;ratioP2
64851;SDS011;56050;55.558;-4.644;2023-11-19T00:01:34;14.15;;;1.50;;
64851;SDS011;56050;55.558;-4.644;2023-11-19T00:04:00;11.32;;;2.03;;
64851;SDS011;56050;55.558;-4.644;2023-11-19T00:06:25;16.52;;;2.28;;
64851;SDS011;56050;55.558;-4.644;2023-11-19T00:08:51;7.68;;;1.30;;
64851;SDS011;56050;55.558;-4.644;2023-11-19T00:11:16;12.15;;;1.50;;
64851;SDS011;56050;55.558;-4.644;2023-11-19T00:13:42;15.73;;;1.75;;
64851;SDS011;56050;55.558;-4.644;2023-11-19T00:16:08;10.30;;;1.35;;
64851;SDS011;56050;55.558;-4.644;2023-11-19T00:18:35;8.50;;;1.40;;
64851;SDS011;56050;55.558;-4.644;2023-11-19T00:21:01;8.15;;;2.08;;
64851;SDS011;56050;55.558;-4.644;2023-11-19T00:23:27;10.77;;;1.95;;
64851;SDS011;56050;55.558;-4.644;2023-11-19T00:25:53;15.23;;;1.88;;
64851;SDS011;56050;55.558;-4.644;2023-11-19T00:28:18;12.45;;;1.67;;
64851;SDS011;56050;55.558;-4.644;2023-11-19T00:30:44;14.82;;;1.77;;
64851;SDS011;56050;55.558;-4.644;2023-11-19T00:33:09;11.00;;;1.73;;
64851;SDS011;56050;55.558;-4.644;2023-11-19T00:35:35;10.25;;;2.50;;
64851;SDS011;56050;55.558;-4.644;2023-11-19T00:38:01;12.00;;;1.65;;
64851;SDS011;56050;55.558;-4.644;2023-11-19T00:40:27;11.52;;;1.75;;
64851;SDS011;56050;55.558;-4.644;2023-11-19T00:42:53;13.05;;;2.40;;
64851;SDS011;56050;55.558;-4.644;2023-11-19T00:45:19;9.40;;;1.92;;
64851;SDS011;56050;55.558;-4.644;2023-11-19T00:47:44;15.20;;;2.20;;
64851;SDS011;56050;55.558;-4.644;2023-11-19T00:50:10;13.32;;;1.63;;
64851;SDS011;56050;55.558;-4.644;2023-11-19T00:52:36;8.82;;;2.30;;
64851;SDS011;56050;55.558;-4.644;2023-11-19T00:55:03;13.32;;;2.15;;
64851;SDS011;56050;55.558;-4.644;2023-11-19T00:57:30;8.77;;;2.05;;
64851;SDS011;56050;55.558;-4.644;2023-11-19T00:59:58;17.45;;;1.83;;
64851;SDS011;56050;55.558;-4.644;2023-11-19T01:02:24;14.55;;;1.42;;
64851;SDS011;56050;55.558;-4.644;2023-11-19T01:04:49;12.07;;;2.00;;
64851;SDS011;56050;55.558;-4.644;2023-11-19T01:07:15;21.13;;;2.70;;
64851;SDS011;56050;55.558;-4.644;2023-11-19T01:09:42;12.82;;;1.95;;
64851;SDS011;56050;55.558;-4.644;2023-11-19T01:12:07;13.07;;;1.83;;
64851;SDS011;56050;55.558;-4.644;2023-11-19T01:14:34;15.70;;;1.55;;
64851;SDS011;56050;55.558;-4.644;2023-11-19T01:16:59;9.85;;;1.95;;
64851;SDS011;56050;55.558;-4.644;2023-11-19T01:19:26;11.57;;;2.13;;
64851;SDS011;56050;55.558;-4.644;2023-11-19T01:21:53;14.73;;;2.13;;
64851;SDS011;56050;55.558;-4.644;2023-11-19T01:24:19;14.15;;;2.30;;
64851;SDS011;56050;55.558;-4.644;2023-11-19T01:26:44;12.40;;;1.88;;
64851;SDS011;56050;55.558;-4.644;2023-11-19T01:29:13;16.27;;;1.65;;
64851;SDS011;56050;55.558;-4.644;2023-11-19T01:31:42;14.15;;;1.65;;
64851;SDS011;56050;55.558;-4.644;2023-11-19T01:34:08;9.32;;;1.27;;
64851;SDS011;56050;55.558;-4.644;2023-11-19T01:36:34;12.02;;;1.67;;
64851;SDS011;56050;55.558;-4.644;2023-11-19T01:39:00;13.10;;;1.75;;
64851;SDS011;56050;55.558;-4.644;2023-11-19T01:41:25;9.70;;;1.52;;
64851;SDS011;56050;55.558;-4.644;2023-11-19T01:43:51;9.20;;;1.45;;
64851;SDS011;56050;55.558;-4.644;2023-11-19T01:46:16;9.63;;;1.80;;
64851;SDS011;56050;55.558;-4.644;2023-11-19T01:48:45;12.90;;;1.75;;
64851;SDS011;56050;55.558;-4.644;2023-11-19T01:51:12;13.98;;;1.85;;
64851;SDS011;56050;55.558;-4.644;2023-11-19T01:53:41;13.50;;;2.45;;
64851;SDS011;56050;55.558;-4.644;2023-11-19T01:56:08;15.23;;;2.17;;
64851;SDS011;56050;55.558;-4.644;2023-11-19T01:58:36;10.85;;;1.35;;
64851;SDS011;56050;55.558;-4.644;2023-11-19T02:01:02;10.50;;;2.10;;
64851;SDS011;56050;55.558;-4.644;2023-11-19T02:03:30;11.65;;;1.88;;
64851;SDS011;56050;55.558;-4.644;2023-11-19T02:05:57;12.40;;;2.20;;
64851;SDS011;56050;55.558;-4.644;2023-11-19T02:08:24;13.30;;;1.83;;
64851;SDS011;56050;55.558;-4.644;2023-11-19T02:10:49;17.00;;;2.08;;
64851;SDS011;56050;55.558;-4.644;2023-11-19T02:13:15;16.73;;;1.67;;
64851;SDS011;56050;55.558;-4.644;2023-11-19T02:15:41;17.73;;;3.47;;
64851;SDS011;56050;55.558;-4.644;2023-11-19T02:18:49;12.10;;;3.10;;
64851;SDS011;56050;55.558;-4.644;2023-11-19T02:20:56;11.98;;;1.73;;
64851;SDS011;56050;55.558;-4.644;2023-11-19T02:23:23;10.30;;;1.38;;
64851;SDS011;56050;55.558;-4.644;2023-11-19T02:28:42;6.28;;;1.40;;
64851;SDS011;56050;55.558;-4.644;2023-11-19T02:31:09;7.78;;;1.40;;
64851;SDS011;56050;55.558;-4.644;2023-11-19T02:33:35;13.05;;;1.92;;
64851;SDS011;56050;55.558;-4.644;2023-11-19T02:36:02;12.70;;;1.17;;
64851;SDS011;56050;55.558;-4.644;2023-11-19T02:38:29;12.52;;;1.13;;
64851;SDS011;56050;55.558;-4.644;2023-11-19T02:40:56;8.27;;;1.23;;
64851;SDS011;56050;55.558;-4.644;2023-11-19T02:43:22;11.98;;;1.25;;
64851;SDS011;56050;55.558;-4.644;2023-11-19T02:45:47;13.95;;;1.63;;
64851;SDS011;56050;55.558;-4.644;2023-11-19T02:48:13;10.55;;;2.35;;
64851;SDS011;56050;55.558;-4.644;2023-11-19T02:50:40;11.05;;;1.63;;
64851;SDS011;56050;55.558;-4.644;2023-11-19T02:53:08;11.07;;;1.83;;
64851;SDS011;56050;55.558;-4.644;2023-11-19T02:55:34;12.25;;;1.70;;
64851;SDS011;56050;55.558;-4.644;2023-11-19T02:58:03;10.25;;;1.33;;
64851;SDS011;56050;55.558;-4.644;2023-11-19T03:00:44;15.43;;;2.40;;
64851;SDS011;56050;55.558;-4.644;2023-11-19T03:03:17;12.82;;;2.28;;
64851;SDS011;56050;55.558;-4.644;2023-11-19T03:05:47;20.35;;;2.60;;
64851;SDS011;56050;55.558;-4.644;2023-11-19T03:08:14;12.93;;;1.63;;
64851;SDS011;56050;55.558;-4.644;2023-11-19T03:10:42;14.13;;;1.63;;
64851;SDS011;56050;55.558;-4.644;2023-11-19T03:13:12;12.70;;;1.50;;
64851;SDS011;56050;55.558;-4.644;2023-11-19T03:15:44;10.20;;;1.45;;
64851;SDS011;56050;55.558;-4.644;2023-11-19T03:18:11;14.90;;;1.95;;
64851;SDS011;56050;55.558;-4.644;2023-11-19T03:20:36;12.00;;;1.73;;
64851;SDS011;56050;55.558;-4.644;2023-11-19T03:23:02;16.73;;;2.13;;
64851;SDS011;56050;55.558;-4.644;2023-11-19T03:25:27;12.88;;;2.53;;
64851;SDS011;56050;55.558;-4.644;2023-11-19T03:27:59;18.23;;;2.58;;
64851;SDS011;56050;55.558;-4.644;2023-11-19T03:30:28;11.57;;;2.63;;
64851;SDS011;56050;55.558;-4.644;2023-11-19T03:32:57;15.95;;;1.75;;
64851;SDS011;56050;55.558;-4.644;2023-11-19T03:35:23;13.57;;;1.90;;
64851;SDS011;56050;55.558;-4.644;2023-11-19T03:37:49;12.98;;;1.65;;
64851;SDS011;56050;55.558;-4.644;2023-11-19T03:40:16;14.93;;;1.27;;
64851;SDS011;56050;55.558;-4.644;2023-11-19T03:42:42;12.60;;;1.80;;
64851;SDS011;56050;55.558;-4.644;2023-11-19T03:45:07;11.73;;;1.30;;
64851;SDS011;56050;55.558;-4.644;2023-11-19T03:47:37;12.98;;;1.90;;
64851;SDS011;56050;55.558;-4.644;2023-11-19T03:50:02;10.60;;;1.90;;
64851;SDS011;56050;55.558;-4.644;2023-11-19T03:52:29;16.73;;;2.00;;
64851;SDS011;56050;55.558;-4.644;2023-11-19T03:54:55;11.40;;;1.42;;
64851;SDS011;56050;55.558;-4.644;2023-11-19T03:57:22;7.45;;;1.40;;
64851;SDS011;56050;55.558;-4.644;2023-11-19T03:59:48;9.30;;;1.85;;
64851;SDS011;56050;55.558;-4.644;2023-11-19T04:02:13;10.82;;;1.92;;
64851;SDS011;56050;55.558;-4.644;2023-11-19T04:04:39;13.90;;;2.22;;
64851;SDS011;56050;55.558;-4.644;2023-11-19T04:07:05;11.07;;;1.70;;
64851;SDS011;56050;55.558;-4.644;2023-11-19T04:09:31;12.98;;;1.80;;
64851;SDS011;56050;55.558;-4.644;2023-11-19T04:11:59;10.82;;;2.03;;
64851;SDS011;56050;55.558;-4.644;2023-11-19T04:14:25;16.10;;;2.53;;
64851;SDS011;56050;55.558;-4.644;2023-11-19T04:16:51;14.05;;;1.85;;
64851;SDS011;56050;55.558;-4.644;2023-11-19T04:19:17;18.73;;;2.15;;
64851;SDS011;56050;55.558;-4.644;2023-11-19T04:21:42;13.90;;;2.13;;
64851;SDS011;56050;55.558;-4.644;2023-11-19T04:24:08;7.38;;;1.73;;
64851;SDS011;56050;55.558;-4.644;2023-11-19T04:26:44;12.85;;;1.60;;
64851;SDS011;56050;55.558;-4.644;2023-11-19T04:29:14;8.95;;;1.30;;
64851;SDS011;56050;55.558;-4.644;2023-11-19T04:31:40;12.50;;;1.45;;
64851;SDS011;56050;55.558;-4.644;2023-11-19T04:34:06;8.88;;;1.58;;
64851;SDS011;56050;55.558;-4.644;2023-11-19T04:36:32;10.10;;;1.55;;
64851;SDS011;56050;55.558;-4.644;2023-11-19T04:38:58;11.77;;;1.45;;
64851;SDS011;56050;55.558;-4.644;2023-11-19T04:41:27;10.25;;;1.60;;
64851;SDS011;56050;55.558;-4.644;2023-11-19T04:43:53;12.23;;;1.63;;
64851;SDS011;56050;55.558;-4.644;2023-11-19T04:46:21;11.10;;;1.63;;
64851;SDS011;56050;55.558;-4.644;2023-11-19T04:48:48;12.30;;;1.30;;
64851;SDS011;56050;55.558;-4.644;2023-11-19T04:51:14;11.82;;;1.45;;
64851;SDS011;56050;55.558;-4.644;2023-11-19T04:53:40;12.15;;;2.20;;
64851;SDS011;56050;55.558;-4.644;2023-11-19T04:56:09;11.52;;;1.15;;
64851;SDS011;56050;55.558;-4.644;2023-11-19T04:58:36;12.65;;;1.58;;
64851;SDS011;56050;55.558;-4.644;2023-11-19T05:01:02;8.55;;;1.48;;
64851;SDS011;56050;55.558;-4.644;2023-11-19T05:03:29;8.27;;;0.98;;
64851;SDS011;56050;55.558;-4.644;2023-11-19T05:05:58;14.85;;;1.48;;
64851;SDS011;56050;55.558;-4.644;2023-11-19T05:08:23;10.32;;;1.30;;
64851;SDS011;56050;55.558;-4.644;2023-11-19T05:10:49;6.05;;;1.05;;
64851;SDS011;56050;55.558;-4.644;2023-11-19T05:13:14;12.23;;;1.25;;
64851;SDS011;56050;55.558;-4.644;2023-11-19T05:15:40;15.48;;;1.48;;
64851;SDS011;56050;55.558;-4.644;2023-11-19T05:18:06;13.18;;;2.22;;
64851;SDS011;56050;55.558;-4.644;2023-11-19T05:20:31;12.48;;;2.00;;
64851;SDS011;56050;55.558;-4.644;2023-11-19T05:22:56;8.45;;;0.90;;
64851;SDS011;56050;55.558;-4.644;2023-11-19T05:25:25;14.30;;;1.88;;
64851;SDS011;56050;55.558;-4.644;2023-11-19T05:27:52;10.57;;;1.77;;
64851;SDS011;56050;55.558;-4.644;2023-11-19T05:30:17;6.25;;;1.42;;
64851;SDS011;56050;55.558;-4.644;2023-11-19T05:32:43;8.07;;;1.70;;
64851;SDS011;56050;55.558;-4.644;2023-11-19T05:35:08;9.73;;;1.55;;
64851;SDS011;56050;55.558;-4.644;2023-11-19T05:37:34;10.73;;;1.40;;
64851;SDS011;56050;55.558;-4.644;2023-11-19T05:40:00;7.72;;;1.08;;
64851;SDS011;56050;55.558;-4.644;2023-11-19T05:42:28;5.70;;;0.90;;
64851;SDS011;56050;55.558;-4.644;2023-11-19T05:44:53;10.15;;;1.67;;
64851;SDS011;56050;55.558;-4.644;2023-11-19T05:47:19;11.35;;;1.60;;
64851;SDS011;56050;55.558;-4.644;2023-11-19T05:49:45;9.20;;;1.33;;
64851;SDS011;56050;55.558;-4.644;2023-11-19T05:52:10;8.25;;;1.40;;
64851;SDS011;56050;55.558;-4.644;2023-11-19T05:54:37;12.38;;;1.38;;
64851;SDS011;56050;55.558;-4.644;2023-11-19T05:57:06;9.98;;;1.95;;
64851;SDS011;56050;55.558;-4.644;2023-11-19T05:59:34;9.95;;;1.33;;
64851;SDS011;56050;55.558;-4.644;2023-11-19T06:02:01;8.80;;;1.00;;
64851;SDS011;56050;55.558;-4.644;2023-11-19T06:04:27;7.93;;;1.17;;
64851;SDS011;56050;55.558;-4.644;2023-11-19T06:06:53;7.90;;;1.15;;
64851;SDS011;56050;55.558;-4.644;2023-11-19T06:09:20;5.70;;;0.75;;
64851;SDS011;56050;55.558;-4.644;2023-11-19T06:11:46;6.20;;;1.15;;
64851;SDS011;56050;55.558;-4.644;2023-11-19T06:14:12;11.52;;;0.93;;
64851;SDS011;56050;55.558;-4.644;2023-11-19T06:16:37;11.85;;;2.42;;
64851;SDS011;56050;55.558;-4.644;2023-11-19T06:19:05;5.00;;;1.15;;
64851;SDS011;56050;55.558;-4.644;2023-11-19T06:21:30;9.85;;;1.00;;
64851;SDS011;56050;55.558;-4.644;2023-11-19T06:23:55;7.22;;;1.27;;
64851;SDS011;56050;55.558;-4.644;2023-11-19T06:26:21;7.53;;;1.33;;
64851;SDS011;56050;55.558;-4.644;2023-11-19T06:28:47;8.38;;;1.02;;
64851;SDS011;56050;55.558;-4.644;2023-11-19T06:31:12;5.85;;;2.28;;
64851;SDS011;56050;55.558;-4.644;2023-11-19T06:33:41;8.70;;;1.02;;
64851;SDS011;56050;55.558;-4.644;2023-11-19T06:36:07;8.65;;;2.90;;
64851;SDS011;56050;55.558;-4.644;2023-11-19T06:38:34;8.98;;;1.58;;
64851;SDS011;56050;55.558;-4.644;2023-11-19T06:40:59;4.35;;;0.80;;
64851;SDS011;56050;55.558;-4.644;2023-11-19T06:43:25;9.63;;;1.90;;
64851;SDS011;56050;55.558;-4.644;2023-11-19T06:45:50;5.53;;;1.17;;
64851;SDS011;56050;55.558;-4.644;2023-11-19T06:48:16;7.90;;;1.27;;
64851;SDS011;56050;55.558;-4.644;2023-11-19T06:50:41;6.68;;;0.63;;
64851;SDS011;56050;55.558;-4.644;2023-11-19T06:53:07;4.90;;;0.60;;
64851;SDS011;56050;55.558;-4.644;2023-11-19T06:55:35;7.13;;;0.80;;
64851;SDS011;56050;55.558;-4.644;2023-11-19T06:58:00;10.07;;;1.08;;
64851;SDS011;56050;55.558;-4.644;2023-11-19T07:00:27;7.78;;;1.38;;
64851;SDS011;56050;55.558;-4.644;2023-11-19T07:02:53;15.30;;;1.48;;
64851;SDS011;56050;55.558;-4.644;2023-11-19T07:05:18;3.78;;;0.88;;
64851;SDS011;56050;55.558;-4.644;2023-11-19T07:07:44;6.88;;;0.82;;
64851;SDS011;56050;55.558;-4.644;2023-11-19T07:10:11;5.32;;;1.13;;
64851;SDS011;56050;55.558;-4.644;2023-11-19T07:12:37;3.45;;;0.93;;
64851;SDS011;56050;55.558;-4.644;2023-11-19T07:15:03;5.38;;;0.68;;
64851;SDS011;56050;55.558;-4.644;2023-11-19T07:17:30;4.32;;;2.13;;
64851;SDS011;56050;55.558;-4.644;2023-11-19T07:19:56;2.75;;;0.63;;
64851;SDS011;56050;55.558;-4.644;2023-11-19T07:22:24;5.78;;;0.47;;
64851;SDS011;56050;55.558;-4.644;2023-11-19T07:24:50;7.57;;;2.30;;
64851;SDS011;56050;55.558;-4.644;2023-11-19T07:27:16;5.90;;;0.65;;
64851;SDS011;56050;55.558;-4.644;2023-11-19T07:29:43;8.40;;;0.73;;
64851;SDS011;56050;55.558;-4.644;2023-11-19T07:32:09;7.97;;;1.00;;
64851;SDS011;56050;55.558;-4.644;2023-11-19T07:34:35;11.10;;;0.70;;
64851;SDS011;56050;55.558;-4.644;2023-11-19T07:37:01;6.60;;;0.70;;
64851;SDS011;56050;55.558;-4.644;2023-11-19T07:39:28;8.82;;;1.77;;
64851;SDS011;56050;55.558;-4.644;2023-11-19T07:41:53;3.42;;;1.00;;
64851;SDS011;56050;55.558;-4.644;2023-11-19T07:44:20;6.10;;;0.60;;
64851;SDS011;56050;55.558;-4.644;2023-11-19T07:46:46;10.70;;;0.93;;
64851;SDS011;56050;55.558;-4.644;2023-11-19T07:49:13;6.20;;;0.80;;
64851;SDS011;56050;55.558;-4.644;2023-11-19T07:51:38;3.67;;;1.95;;
64851;SDS011;56050;55.558;-4.644;2023-11-19T07:54:05;9.35;;;1.30;;
64851;SDS011;56050;55.558;-4.644;2023-11-19T07:56:31;4.38;;;0.80;;
64851;SDS011;56050;55.558;-4.644;2023-11-19T07:58:59;7.20;;;1.42;;
64851;SDS011;56050;55.558;-4.644;2023-11-19T08:01:25;3.03;;;1.02;;
64851;SDS011;56050;55.558;-4.644;2023-11-19T08:03:50;4.18;;;1.15;;
64851;SDS011;56050;55.558;-4.644;2023-11-19T08:06:16;5.60;;;0.80;;
64851;SDS011;56050;55.558;-4.644;2023-11-19T08:08:41;4.05;;;0.75;;
64851;SDS011;56050;55.558;-4.644;2023-11-19T08:11:07;5.45;;;0.95;;
64851;SDS011;56050;55.558;-4.644;2023-11-19T08:13:32;8.82;;;0.80;;
64851;SDS011;56050;55.558;-4.644;2023-11-19T08:15:57;3.72;;;1.80;;
64851;SDS011;56050;55.558;-4.644;2023-11-19T08:18:23;9.55;;;1.40;;
64851;SDS011;56050;55.558;-4.644;2023-11-19T08:20:49;8.05;;;0.82;;
64851;SDS011;56050;55.558;-4.644;2023-11-19T08:23:18;2.60;;;0.82;;
64851;SDS011;56050;55.558;-4.644;2023-11-19T08:25:43;4.32;;;0.90;;
64851;SDS011;56050;55.558;-4.644;2023-11-19T08:28:09;9.25;;;1.55;;
64851;SDS011;56050;55.558;-4.644;2023-11-19T08:30:35;6.10;;;1.02;;
64851;SDS011;56050;55.558;-4.644;2023-11-19T08:33:00;6.60;;;0.52;;
64851;SDS011;56050;55.558;-4.644;2023-11-19T08:35:28;6.53;;;1.00;;
64851;SDS011;56050;55.558;-4.644;2023-11-19T08:37:54;3.92;;;0.90;;
64851;SDS011;56050;55.558;-4.644;2023-11-19T08:40:19;6.32;;;0.73;;
64851;SDS011;56050;55.558;-4.644;2023-11-19T08:42:45;2.92;;;0.90;;
64851;SDS011;56050;55.558;-4.644;2023-11-19T08:45:11;3.03;;;0.90;;
64851;SDS011;56050;55.558;-4.644;2023-11-19T08:47:37;5.60;;;0.32;;
64851;SDS011;56050;55.558;-4.644;2023-11-19T08:50:02;5.07;;;1.00;;
64851;SDS011;56050;55.558;-4.644;2023-11-19T08:52:29;1.92;;;0.70;;
64851;SDS011;56050;55.558;-4.644;2023-11-19T08:54:55;3.72;;;0.52;;
64851;SDS011;56050;55.558;-4.644;2023-11-19T08:57:21;4.75;;;1.25;;
64851;SDS011;56050;55.558;-4.644;2023-11-19T08:59:46;4.68;;;1.10;;
64851;SDS011;56050;55.558;-4.644;2023-11-19T09:02:12;4.57;;;0.70;;
64851;SDS011;56050;55.558;-4.644;2023-11-19T09:04:37;4.20;;;0.95;;
64851;SDS011;56050;55.558;-4.644;2023-11-19T09:07:03;4.47;;;1.00;;
64851;SDS011;56050;55.558;-4.644;2023-11-19T09:09:28;2.22;;;0.45;;
64851;SDS011;56050;55.558;-4.644;2023-11-19T09:11:55;5.80;;;0.50;;
64851;SDS011;56050;55.558;-4.644;2023-11-19T09:14:20;7.25;;;0.90;;
64851;SDS011;56050;55.558;-4.644;2023-11-19T09:16:50;5.70;;;1.02;;
64851;SDS011;56050;55.558;-4.644;2023-11-19T09:19:16;5.25;;;1.08;;
64851;SDS011;56050;55.558;-4.644;2023-11-19T09:21:42;3.85;;;0.77;;
64851;SDS011;56050;55.558;-4.644;2023-11-19T09:24:08;7.97;;;1.13;;
64851;SDS011;56050;55.558;-4.644;2023-11-19T09:26:33;5.15;;;0.55;;
64851;SDS011;56050;55.558;-4.644;2023-11-19T09:29:01;9.43;;;1.38;;
64851;SDS011;56050;55.558;-4.644;2023-11-19T09:31:26;4.28;;;1.08;;
64851;SDS011;56050;55.558;-4.644;2023-11-19T09:33:52;2.78;;;0.63;;
64851;SDS011;56050;55.558;-4.644;2023-11-19T09:36:17;5.90;;;0.93;;
64851;SDS011;56050;55.558;-4.644;2023-11-19T09:38:44;4.82;;;0.88;;
64851;SDS011;56050;55.558;-4.644;2023-11-19T09:41:10;4.22;;;0.93;;
64851;SDS011;56050;55.558;-4.644;2023-11-19T09:43:41;9.02;;;1.48;;
64851;SDS011;56050;55.558;-4.644;2023-11-19T09:46:10;4.20;;;0.60;;
64851;SDS011;56050;55.558;-4.644;2023-11-19T09:48:38;6.53;;;0.65;;
64851;SDS011;56050;55.558;-4.644;2023-11-19T09:51:06;2.70;;;0.98;;
64851;SDS011;56050;55.558;-4.644;2023-11-19T09:53:33;5.80;;;1.17;;
64851;SDS011;56050;55.558;-4.644;2023-11-19T09:56:00;4.95;;;0.75;;
64851;SDS011;56050;55.558;-4.644;2023-11-19T09:58:27;2.13;;;0.47;;
64851;SDS011;56050;55.558;-4.644;2023-11-19T10:00:53;6.75;;;0.80;;
64851;SDS011;56050;55.558;-4.644;2023-11-19T10:03:19;3.20;;;0.70;;
64851;SDS011;56050;55.558;-4.644;2023-11-19T10:05:46;3.47;;;0.80;;
64851;SDS011;56050;55.558;-4.644;2023-11-19T10:08:11;3.22;;;0.80;;
64851;SDS011;56050;55.558;-4.644;2023-11-19T10:10:37;4.18;;;1.90;;
64851;SDS011;56050;55.558;-4.644;2023-11-19T10:13:03;8.88;;;1.13;;
64851;SDS011;56050;55.558;-4.644;2023-11-19T10:15:28;3.63;;;1.10;;
64851;SDS011;56050;55.558;-4.644;2023-11-19T10:18:01;4.28;;;0.52;;
64851;SDS011;56050;55.558;-4.644;2023-11-19T10:20:34;2.65;;;0.63;;
64851;SDS011;56050;55.558;-4.644;2023-11-19T10:23:01;3.35;;;0.50;;
64851;SDS011;56050;55.558;-4.644;2023-11-19T10:25:28;3.63;;;0.68;;
64851;SDS011;56050;55.558;-4.644;2023-11-19T10:27:54;6.22;;;0.88;;
64851;SDS011;56050;55.558;-4.644;2023-11-19T10:30:24;4.05;;;0.40;;
64851;SDS011;56050;55.558;-4.644;2023-11-19T10:35:53;3.10;;;0.75;;
64851;SDS011;56050;55.558;-4.644;2023-11-19T10:38:20;3.85;;;0.82;;
64851;SDS011;56050;55.558;-4.644;2023-11-19T10:40:47;5.00;;;1.00;;
64851;SDS011;56050;55.558;-4.644;2023-11-19T10:43:13;3.80;;;0.40;;
64851;SDS011;56050;55.558;-4.644;2023-11-19T10:45:39;6.05;;;0.63;;
64851;SDS011;56050;55.558;-4.644;2023-11-19T10:48:05;5.55;;;0.70;;
64851;SDS011;56050;55.558;-4.644;2023-11-19T10:50:35;4.40;;;0.63;;
64851;SDS011;56050;55.558;-4.644;2023-11-19T10:53:02;3.05;;;1.02;;
64851;SDS011;56050;55.558;-4.644;2023-11-19T10:55:29;2.78;;;0.82;;
64851;SDS011;56050;55.558;-4.644;2023-11-19T10:58:02;3.83;;;0.88;;
64851;SDS011;56050;55.558;-4.644;2023-11-19T11:00:30;4.15;;;1.27;;
64851;SDS011;56050;55.558;-4.644;2023-11-19T11:03:11;2.60;;;0.82;;
64851;SDS011;56050;55.558;-4.644;2023-11-19T11:05:43;5.40;;;0.60;;
64851;SDS011;56050;55.558;-4.644;2023-11-19T11:08:12;4.07;;;0.93;;
64851;SDS011;56050;55.558;-4.644;2023-11-19T11:10:59;5.28;;;0.93;;
64851;SDS011;56050;55.558;-4.644;2023-11-19T11:13:25;4.93;;;0.95;;
64851;SDS011;56050;55.558;-4.644;2023-11-19T11:15:52;4.53;;;0.80;;
64851;SDS011;56050;55.558;-4.644;2023-11-19T11:18:21;4.30;;;0.75;;
64851;SDS011;56050;55.558;-4.644;2023-11-19T11:20:48;4.00;;;0.82;;
64851;SDS011;56050;55.558;-4.644;2023-11-19T11:36:21;10.02;;;1.15;;
64851;SDS011;56050;55.558;-4.644;2023-11-19T11:38:48;6.88;;;1.17;;
64851;SDS011;56050;55.558;-4.644;2023-11-19T11:41:15;3.15;;;0.65;;
64851;SDS011;56050;55.558;-4.644;2023-11-19T11:43:50;3.78;;;0.73;;
64851;SDS011;56050;55.558;-4.644;2023-11-19T11:49:01;5.40;;;0.93;;
64851;SDS011;56050;55.558;-4.644;2023-11-19T11:54:09;6.10;;;0.88;;
64851;SDS011;56050;55.558;-4.644;2023-11-19T12:02:09;1.90;;;0.80;;
64851;SDS011;56050;55.558;-4.644;2023-11-19T12:04:36;3.13;;;0.80;;
64851;SDS011;56050;55.558;-4.644;2023-11-19T12:07:13;3.10;;;0.80;;
64851;SDS011;56050;55.558;-4.644;2023-11-19T12:09:45;5.72;;;0.95;;
64851;SDS011;56050;55.558;-4.644;2023-11-19T12:20:01;6.57;;;0.80;;
64851;SDS011;56050;55.558;-4.644;2023-11-19T12:22:28;4.00;;;0.70;;
64851;SDS011;56050;55.558;-4.644;2023-11-19T12:24:54;2.80;;;1.17;;
64851;SDS011;56050;55.558;-4.644;2023-11-19T12:27:21;4.80;;;0.85;;
64851;SDS011;56050;55.558;-4.644;2023-11-19T12:29:49;4.97;;;0.63;;
64851;SDS011;56050;55.558;-4.644;2023-11-19T12:32:15;5.05;;;1.25;;
64851;SDS011;56050;55.558;-4.644;2023-11-19T12:34:41;3.67;;;0.40;;
64851;SDS011;56050;55.558;-4.644;2023-11-19T12:37:07;5.82;;;0.90;;
64851;SDS011;56050;55.558;-4.644;2023-11-19T12:39:34;4.55;;;1.10;;
64851;SDS011;56050;55.558;-4.644;2023-11-19T12:42:00;5.78;;;0.73;;
64851;SDS011;56050;55.558;-4.644;2023-11-19T12:44:26;5.93;;;1.20;;
64851;SDS011;56050;55.558;-4.644;2023-11-19T12:47:01;6.47;;;0.98;;
64851;SDS011;56050;55.558;-4.644;2023-11-19T12:49:27;10.07;;;3.95;;
64851;SDS011;56050;55.558;-4.644;2023-11-19T12:51:53;4.82;;;1.08;;
64851;SDS011;56050;55.558;-4.644;2023-11-19T12:54:18;7.75;;;1.27;;
64851;SDS011;56050;55.558;-4.644;2023-11-19T12:56:53;3.50;;;0.88;;
64851;SDS011;56050;55.558;-4.644;2023-11-19T12:59:18;8.77;;;1.23;;
64851;SDS011;56050;55.558;-4.644;2023-11-19T13:01:56;3.72;;;1.05;;
64851;SDS011;56050;55.558;-4.644;2023-11-19T13:06:49;3.22;;;1.05;;
64851;SDS011;56050;55.558;-4.644;2023-11-19T13:09:27;2.75;;;0.60;;
64851;SDS011;56050;55.558;-4.644;2023-11-19T13:11:54;1.75;;;1.13;;
64851;SDS011;56050;55.558;-4.644;2023-11-19T13:14:21;3.58;;;0.80;;
64851;SDS011;56050;55.558;-4.644;2023-11-19T13:16:48;2.40;;;0.43;;
64851;SDS011;56050;55.558;-4.644;2023-11-19T13:19:14;4.18;;;0.75;;
64851;SDS011;56050;55.558;-4.644;2023-11-19T13:21:41;2.55;;;0.52;;
64851;SDS011;56050;55.558;-4.644;2023-11-19T13:24:07;2.47;;;0.50;;
64851;SDS011;56050;55.558;-4.644;2023-11-19T13:26:32;3.92;;;0.60;;
64851;SDS011;56050;55.558;-4.644;2023-11-19T13:28:58;3.40;;;0.93;;
64851;SDS011;56050;55.558;-4.644;2023-11-19T13:31:23;3.78;;;0.60;;
64851;SDS011;56050;55.558;-4.644;2023-11-19T13:33:49;2.22;;;0.70;;
64851;SDS011;56050;55.558;-4.644;2023-11-19T13:36:14;1.98;;;0.93;;
64851;SDS011;56050;55.558;-4.644;2023-11-19T13:38:39;1.63;;;0.77;;
64851;SDS011;56050;55.558;-4.644;2023-11-19T13:41:07;4.60;;;0.30;;
64851;SDS011;56050;55.558;-4.644;2023-11-19T13:43:34;4.95;;;0.50;;
64851;SDS011;56050;55.558;-4.644;2023-11-19T13:46:00;2.45;;;0.60;;
64851;SDS011;56050;55.558;-4.644;2023-11-19T13:48:26;2.03;;;0.40;;
64851;SDS011;56050;55.558;-4.644;2023-11-19T13:50:53;2.30;;;0.47;;
64851;SDS011;56050;55.558;-4.644;2023-11-19T13:53:19;1.77;;;0.98;;
64851;SDS011;56050;55.558;-4.644;2023-11-19T13:55:45;3.00;;;1.02;;
64851;SDS011;56050;55.558;-4.644;2023-11-19T13:58:10;3.95;;;0.73;;
64851;SDS011;56050;55.558;-4.644;2023-11-19T14:00:36;2.70;;;1.95;;
64851;SDS011;56050;55.558;-4.644;2023-11-19T14:03:02;3.25;;;0.65;;
64851;SDS011;56050;55.558;-4.644;2023-11-19T14:05:28;3.30;;;0.75;;
64851;SDS011;56050;55.558;-4.644;2023-11-19T14:07:53;3.67;;;1.25;;
64851;SDS011;56050;55.558;-4.644;2023-11-19T14:10:21;2.28;;;0.68;;
64851;SDS011;56050;55.558;-4.644;2023-11-19T14:12:47;7.07;;;0.75;;
64851;SDS011;56050;55.558;-4.644;2023-11-19T14:15:12;2.40;;;0.50;;
64851;SDS011;56050;55.558;-4.644;2023-11-19T14:17:38;3.33;;;1.08;;
64851;SDS011;56050;55.558;-4.644;2023-11-19T14:20:05;2.00;;;0.80;;
64851;SDS011;56050;55.558;-4.644;2023-11-19T14:22:44;1.63;;;0.90;;
64851;SDS011;56050;55.558;-4.644;2023-11-19T14:25:14;2.97;;;2.75;;
64851;SDS011;56050;55.558;-4.644;2023-11-19T14:27:41;3.72;;;0.65;;
64851;SDS011;56050;55.558;-4.644;2023-11-19T14:30:10;1.98;;;0.75;;
64851;SDS011;56050;55.558;-4.644;2023-11-19T14:32:38;2.65;;;0.40;;
64851;SDS011;56050;55.558;-4.644;2023-11-19T14:35:05;2.53;;;0.40;;
64851;SDS011;56050;55.558;-4.644;2023-11-19T14:37:32;1.33;;;0.32;;
64851;SDS011;56050;55.558;-4.644;2023-11-19T14:39:58;1.15;;;0.30;;
64851;SDS011;56050;55.558;-4.644;2023-11-19T14:42:24;4.72;;;0.43;;
64851;SDS011;56050;55.558;-4.644;2023-11-19T14:44:53;1.85;;;0.50;;
64851;SDS011;56050;55.558;-4.644;2023-11-19T14:47:19;3.78;;;0.30;;
64851;SDS011;56050;55.558;-4.644;2023-11-19T14:49:45;1.38;;;0.55;;
64851;SDS011;56050;55.558;-4.644;2023-11-19T14:52:10;1.08;;;0.98;;
64851;SDS011;56050;55.558;-4.644;2023-11-19T14:54:36;2.58;;;0.80;;
64851;SDS011;56050;55.558;-4.644;2023-11-19T14:57:02;1.58;;;0.50;;
64851;SDS011;56050;55.558;-4.644;2023-11-19T14:59:28;2.20;;;0.55;;
64851;SDS011;56050;55.558;-4.644;2023-11-19T15:01:53;1.95;;;0.85;;
64851;SDS011;56050;55.558;-4.644;2023-11-19T15:04:19;2.50;;;0.80;;
64851;SDS011;56050;55.558;-4.644;2023-11-19T15:06:44;4.85;;;0.75;;
64851;SDS011;56050;55.558;-4.644;2023-11-19T15:09:10;3.60;;;0.52;;